createdAt,value
2018-04-25T00:02:16.775Z,8.77
2018-04-25T00:04:45.020Z,8.32
2018-04-25T00:07:13.297Z,8.52
2018-04-25T00:09:40.800Z,9.57
2018-04-25T00:12:08.290Z,12.40
2018-04-25T00:14:35.777Z,10.38
2018-04-25T00:17:03.576Z,10.85
2018-04-25T00:19:31.829Z,14.45
2018-04-25T00:21:59.306Z,11.10
2018-04-25T00:24:26.896Z,10.75
2018-04-25T00:26:54.370Z,12.55
2018-04-25T00:29:22.609Z,11.15
2018-04-25T00:31:50.111Z,12.35
2018-04-25T00:34:17.627Z,11.93
2018-04-25T00:36:45.130Z,12.80
2018-04-25T00:39:12.932Z,12.70
2018-04-25T00:41:41.182Z,10.57
2018-04-25T00:44:08.687Z,10.10
2018-04-25T00:46:36.773Z,11.18
2018-04-25T00:49:04.259Z,18.08
2018-04-25T00:51:31.754Z,10.10
2018-04-25T00:53:59.660Z,11.12
2018-04-25T00:56:27.129Z,11.57
2018-04-25T00:58:54.619Z,17.48
2018-04-25T01:01:22.498Z,9.88
2018-04-25T01:03:50.028Z,12.32
2018-04-25T01:06:17.558Z,13.62
2018-04-25T01:08:45.334Z,11.07
2018-04-25T01:11:12.847Z,11.77
2018-04-25T01:13:40.326Z,11.90
2018-04-25T01:16:08.162Z,13.02
2018-04-25T01:18:35.755Z,6.72
2018-04-25T01:21:03.230Z,8.55
2018-04-25T01:23:31.282Z,10.13
2018-04-25T01:26:04.489Z,6.90
2018-04-25T01:28:48.137Z,5.20
2018-04-25T01:31:19.366Z,5.60
2018-04-25T01:33:53.271Z,8.52
2018-04-25T01:36:32.885Z,4.90
2018-04-25T01:39:03.358Z,3.60
2018-04-25T01:41:30.825Z,6.30
2018-04-25T01:43:59.090Z,6.37
2018-04-25T01:46:27.478Z,4.22
2018-04-25T02:02:26.868Z,7.93
2018-04-25T02:04:54.338Z,9.40
2018-04-25T02:07:22.590Z,8.75
2018-04-25T02:09:50.386Z,11.95
2018-04-25T02:12:18.615Z,5.78
2018-04-25T02:14:46.119Z,7.90
2018-04-25T02:17:13.674Z,8.50
2018-04-25T02:19:42.003Z,7.97
2018-04-25T02:22:09.463Z,8.45
2018-04-25T02:24:37.270Z,9.35
2018-04-25T02:27:05.506Z,7.32
2018-04-25T02:29:32.989Z,8.70
2018-04-25T02:32:00.762Z,8.15
2018-04-25T02:34:28.243Z,10.23
2018-04-25T02:36:55.752Z,6.03
2018-04-25T02:39:23.651Z,11.55
2018-04-25T02:41:51.906Z,4.47
2018-04-25T02:44:19.376Z,7.43
2018-04-25T02:46:47.882Z,7.12
2018-04-25T02:49:16.153Z,11.27
2018-04-25T02:51:44.409Z,9.00
2018-04-25T02:54:12.175Z,10.43
2018-04-25T02:56:40.466Z,7.37
2018-04-25T02:59:08.711Z,11.18
2018-04-25T03:01:36.807Z,11.52
2018-04-25T03:04:04.318Z,8.57
2018-04-25T03:06:31.810Z,9.05
2018-04-25T03:08:59.591Z,10.68
2018-04-25T03:11:27.849Z,13.62
2018-04-25T03:13:55.333Z,13.73
2018-04-25T03:16:23.104Z,9.75
2018-04-25T03:18:50.586Z,14.70
2018-04-25T03:21:18.059Z,13.32
2018-04-25T03:23:45.826Z,10.15
2018-04-25T03:26:13.313Z,12.25
2018-04-25T03:28:41.570Z,13.45
2018-04-25T03:31:09.363Z,11.25
2018-04-25T03:33:36.924Z,16.20
2018-04-25T03:36:05.157Z,14.82
2018-04-25T03:38:32.935Z,15.43
2018-04-25T03:41:00.445Z,17.20
2018-04-25T03:43:27.977Z,14.40
2018-04-25T03:45:56.549Z,15.65
2018-04-25T03:48:24.088Z,17.90
2018-04-25T03:50:51.622Z,11.20
2018-04-25T03:53:19.537Z,11.60
2018-04-25T03:55:47.774Z,16.33
2018-04-25T03:58:15.267Z,14.50
2018-04-25T04:00:43.145Z,12.60
2018-04-25T04:03:10.673Z,15.18
2018-04-25T04:05:38.144Z,16.87
2018-04-25T04:08:06.085Z,11.75
2018-04-25T04:10:33.616Z,12.90
2018-04-25T04:13:01.184Z,19.77
2018-04-25T04:15:29.065Z,16.40
2018-04-25T04:17:56.540Z,13.65
2018-04-25T04:20:24.025Z,15.55
2018-04-25T04:22:52.597Z,11.40
2018-04-25T04:25:20.835Z,14.48
2018-04-25T04:27:48.312Z,13.02
2018-04-25T04:30:15.930Z,14.87
2018-04-25T04:32:43.395Z,18.23
2018-04-25T04:35:10.912Z,20.85
2018-04-25T04:37:39.158Z,25.83
2018-04-25T04:40:06.631Z,16.45
2018-04-25T04:42:34.115Z,15.95
2018-04-25T04:45:01.656Z,12.20
2018-04-25T04:47:29.164Z,14.95
2018-04-25T04:49:56.662Z,13.60
2018-04-25T04:52:24.496Z,14.38
2018-04-25T04:54:52.015Z,17.15
2018-04-25T04:57:19.515Z,18.23
2018-04-25T04:59:47.281Z,9.95
2018-04-25T05:02:14.747Z,6.25
2018-04-25T05:04:43.008Z,9.68
2018-04-25T05:07:10.799Z,10.40
2018-04-25T05:09:39.047Z,9.38
2018-04-25T05:12:06.574Z,11.12
2018-04-25T05:14:34.400Z,9.68
2018-04-25T05:17:01.953Z,17.10
2018-04-25T05:19:29.464Z,10.60
2018-04-25T05:21:56.940Z,14.95
2018-04-25T05:24:24.438Z,15.73
2018-04-25T05:26:52.666Z,11.30
2018-04-25T05:29:20.474Z,9.38
2018-04-25T05:31:48.816Z,12.00
2018-04-25T05:34:16.259Z,14.32
2018-04-25T05:36:44.022Z,14.87
2018-04-25T05:39:11.509Z,12.35
2018-04-25T05:41:39.010Z,12.23
2018-04-25T05:44:06.967Z,17.17
2018-04-25T05:46:35.203Z,15.90
2018-04-25T05:49:02.733Z,11.35
2018-04-25T05:51:30.562Z,15.07
2018-04-25T05:53:58.073Z,14.95
2018-04-25T05:56:25.616Z,11.12
2018-04-25T05:58:53.398Z,11.35
2018-04-25T06:01:20.862Z,8.38
2018-04-25T06:03:48.363Z,8.98
2018-04-25T06:06:16.682Z,10.10
2018-04-25T06:08:44.279Z,12.68
2018-04-25T06:11:12.402Z,9.25
2018-04-25T06:13:39.915Z,12.37
2018-04-25T06:16:08.151Z,13.75
2018-04-25T06:18:35.629Z,13.70
2018-04-25T06:21:03.899Z,6.82
2018-04-25T06:23:31.358Z,9.20
2018-04-25T06:25:58.816Z,9.35
2018-04-25T06:28:26.321Z,9.85
2018-04-25T06:30:53.806Z,14.13
2018-04-25T06:33:21.285Z,13.30
2018-04-25T06:35:48.782Z,8.02
2018-04-25T06:38:17.022Z,7.10
2018-04-25T06:40:44.554Z,6.70
2018-04-25T06:43:12.055Z,8.30
2018-04-25T06:45:39.532Z,10.40
2018-04-25T06:48:07.011Z,11.12
2018-04-25T06:50:34.564Z,9.48
2018-04-25T06:53:02.146Z,7.25
2018-04-25T06:55:29.659Z,14.95
2018-04-25T06:57:57.512Z,6.93
2018-04-25T07:00:25.758Z,7.00
2018-04-25T07:02:53.265Z,6.60
2018-04-25T07:05:21.105Z,7.40
2018-04-25T07:07:48.613Z,8.50
2018-04-25T07:10:16.093Z,8.88
2018-04-25T07:12:43.585Z,7.80
2018-04-25T07:15:11.823Z,12.37
2018-04-25T07:17:39.289Z,9.95
2018-04-25T07:20:07.719Z,10.40
2018-04-25T07:22:35.186Z,8.15
2018-04-25T07:25:02.654Z,8.85
2018-04-25T07:27:30.133Z,10.93
2018-04-25T07:29:57.611Z,11.07
2018-04-25T07:32:25.079Z,9.52
2018-04-25T07:34:53.346Z,10.25
2018-04-25T07:37:20.807Z,8.52
2018-04-25T07:39:49.063Z,10.38
2018-04-25T07:42:16.635Z,12.32
2018-04-25T07:44:44.197Z,11.52
2018-04-25T07:47:11.717Z,7.68
2018-04-25T07:49:39.283Z,9.68
2018-04-25T07:52:06.895Z,10.82
2018-04-25T07:54:34.314Z,9.35
2018-04-25T07:57:01.871Z,8.27
2018-04-25T07:59:30.044Z,4.25
2018-04-25T08:01:58.280Z,9.95
2018-04-25T08:04:26.111Z,7.00
2018-04-25T08:06:54.342Z,9.55
2018-04-25T08:09:21.933Z,5.65
2018-04-25T08:11:49.421Z,4.43
2018-04-25T08:14:29.625Z,8.18
2018-04-25T08:17:09.405Z,5.65
2018-04-25T08:19:49.349Z,5.07
2018-04-25T08:22:16.922Z,7.50
2018-04-25T08:24:44.993Z,8.65
2018-04-25T08:27:13.245Z,3.50
2018-04-25T08:29:41.024Z,3.70
2018-04-25T08:32:09.262Z,2.80
2018-04-25T08:34:36.749Z,4.70
2018-04-25T08:37:04.409Z,5.40
2018-04-25T08:39:32.142Z,3.15
2018-04-25T08:42:00.554Z,7.07
2018-04-25T08:44:29.090Z,6.47
2018-04-25T08:46:56.598Z,6.28
2018-04-25T08:49:24.106Z,4.95
2018-04-25T08:51:51.905Z,2.65
2018-04-25T08:54:19.398Z,9.25
2018-04-25T08:56:46.891Z,4.65
2018-04-25T08:59:14.709Z,6.22
2018-04-25T09:01:42.215Z,6.28
2018-04-25T09:04:09.812Z,4.62
2018-04-25T09:06:37.303Z,4.10
2018-04-25T09:09:04.870Z,6.35
2018-04-25T09:11:32.379Z,3.67
2018-04-25T09:14:00.118Z,5.93
2018-04-25T09:16:27.622Z,6.60
2018-04-25T09:18:55.138Z,6.15
2018-04-25T09:21:23.042Z,5.40
2018-04-25T09:23:50.621Z,10.35
2018-04-25T09:26:18.107Z,7.97
2018-04-25T09:28:45.614Z,7.78
2018-04-25T09:31:13.280Z,11.20
2018-04-25T09:33:40.762Z,11.20
2018-04-25T09:36:08.262Z,8.05
2018-04-25T09:38:35.752Z,10.15
2018-04-25T09:41:04.014Z,10.95
2018-04-25T09:43:32.270Z,8.30
2018-04-25T09:45:59.787Z,9.85
2018-04-25T09:48:28.447Z,8.52
2018-04-25T09:50:57.483Z,9.45
2018-04-25T09:53:25.109Z,9.20
2018-04-25T09:55:52.618Z,13.95
2018-04-25T09:58:20.118Z,9.93
2018-04-25T10:00:54.145Z,10.90
2018-04-25T10:03:23.531Z,10.50
2018-04-25T10:05:51.179Z,10.32
2018-04-25T10:08:19.863Z,9.90
2018-04-25T10:10:48.223Z,12.85
2018-04-25T10:13:15.651Z,10.85
2018-04-25T10:15:43.181Z,10.57
2018-04-25T10:18:10.989Z,16.33
2018-04-25T10:20:38.499Z,11.32
2018-04-25T10:23:06.001Z,11.15
2018-04-25T10:25:33.921Z,12.10
2018-04-25T10:28:01.578Z,11.60
2018-04-25T10:30:29.217Z,11.90
2018-04-25T10:32:57.494Z,11.40
2018-04-25T10:35:25.853Z,11.15
2018-04-25T10:37:53.342Z,10.02
2018-04-25T10:40:20.890Z,10.95
2018-04-25T10:42:48.435Z,9.00
2018-04-25T10:45:15.923Z,8.90
2018-04-25T10:47:44.193Z,9.80
2018-04-25T10:50:11.674Z,9.63
2018-04-25T10:52:39.173Z,8.73
2018-04-25T10:55:06.690Z,7.47
2018-04-25T10:57:34.166Z,7.73
2018-04-25T11:00:01.671Z,7.93
2018-04-25T11:02:29.987Z,9.67
2018-04-25T11:04:57.564Z,8.48
2018-04-25T11:07:25.145Z,8.80
2018-04-25T11:09:52.662Z,9.35
2018-04-25T11:12:21.201Z,9.27
2018-04-25T11:14:49.472Z,7.40
2018-04-25T11:17:17.348Z,6.57
2018-04-25T11:19:44.829Z,5.90
2018-04-25T11:22:12.362Z,5.97
2018-04-25T11:24:41.459Z,8.85
2018-04-25T11:27:09.702Z,7.80
2018-04-25T11:29:37.197Z,7.05
2018-04-25T11:32:05.289Z,10.13
2018-04-25T11:34:32.804Z,8.18
2018-04-25T11:37:01.571Z,9.77
2018-04-25T11:39:29.389Z,7.43
2018-04-25T11:41:56.946Z,7.77
2018-04-25T11:44:24.450Z,6.60
2018-04-25T11:46:51.978Z,6.85
2018-04-25T11:49:20.111Z,8.68
2018-04-25T11:51:47.634Z,8.48
2018-04-25T11:54:15.375Z,6.47
2018-04-25T11:56:42.858Z,6.93
2018-04-25T11:59:10.371Z,8.40
2018-04-25T12:01:38.618Z,6.73
2018-04-25T12:04:06.098Z,3.47
2018-04-25T12:06:34.352Z,5.10
2018-04-25T12:09:01.952Z,5.80
2018-04-25T12:11:29.439Z,4.37
2018-04-25T12:13:56.910Z,5.07
2018-04-25T12:16:24.410Z,4.20
2018-04-25T12:18:51.906Z,5.72
2018-04-25T12:21:19.393Z,6.75
2018-04-25T12:23:48.006Z,7.37
2018-04-25T12:26:15.481Z,5.15
2018-04-25T12:28:43.057Z,4.72
2018-04-25T12:31:10.585Z,5.12
2018-04-25T12:33:38.072Z,4.30
2018-04-25T12:36:05.554Z,2.97
2018-04-25T12:38:33.039Z,4.10
2018-04-25T12:41:01.319Z,6.37
2018-04-25T12:43:29.562Z,3.67
2018-04-25T12:45:57.049Z,2.47
2018-04-25T12:48:24.530Z,4.03
2018-04-25T12:50:52.011Z,4.03
2018-04-25T12:53:19.506Z,3.70
2018-04-25T12:55:46.990Z,10.77
2018-04-25T12:58:14.573Z,4.40
2018-04-25T13:00:42.074Z,2.57
2018-04-25T13:03:09.624Z,3.50
2018-04-25T13:05:37.152Z,6.37
2018-04-25T13:08:04.682Z,3.70
2018-04-25T13:10:33.094Z,3.23
2018-04-25T13:13:00.586Z,5.40
2018-04-25T13:15:28.074Z,3.37
2018-04-25T13:17:55.583Z,3.93
2018-04-25T13:20:23.088Z,3.90
2018-04-25T13:22:50.647Z,5.00
2018-04-25T13:25:18.153Z,4.78
2018-04-25T13:27:45.622Z,4.00
2018-04-25T13:30:13.131Z,3.67
2018-04-25T13:32:40.650Z,4.77
2018-04-25T13:35:08.930Z,4.82
2018-04-25T13:37:37.609Z,2.58
2018-04-25T13:40:05.112Z,3.87
2018-04-25T13:42:32.585Z,2.75
2018-04-25T13:45:00.094Z,5.40
2018-04-25T13:47:27.565Z,5.30
2018-04-25T13:49:55.826Z,2.60
2018-04-25T13:52:23.799Z,3.08
2018-04-25T13:54:51.318Z,2.12
2018-04-25T13:57:18.834Z,2.30
2018-04-25T13:59:46.790Z,4.12
2018-04-25T14:02:15.038Z,2.90
2018-04-25T14:04:42.566Z,4.35
2018-04-25T14:07:10.133Z,3.93
2018-04-25T14:09:37.755Z,5.50
2018-04-25T14:12:05.505Z,5.70
2018-04-25T14:14:33.032Z,4.97
2018-04-25T14:17:00.611Z,2.53
2018-04-25T14:19:28.977Z,3.93
2018-04-25T14:21:56.466Z,5.07
2018-04-25T14:24:24.007Z,5.00
2018-04-25T14:26:51.522Z,4.40
2018-04-25T14:29:18.998Z,4.70
2018-04-25T14:31:46.525Z,7.93
2018-04-25T14:34:14.089Z,3.83
2018-04-25T14:36:41.716Z,4.77
2018-04-25T14:39:15.498Z,6.30
2018-04-25T14:41:43.159Z,3.78
2018-04-25T14:44:10.694Z,5.20
2018-04-25T14:46:38.513Z,6.40
2018-04-25T14:49:06.306Z,5.17
2018-04-25T14:51:37.393Z,6.73
2018-04-25T14:54:05.570Z,4.37
2018-04-25T14:56:33.066Z,4.22
2018-04-25T14:59:00.641Z,5.00
2018-04-25T15:01:28.373Z,7.05
2018-04-25T15:03:56.020Z,6.22
2018-04-25T15:06:24.296Z,7.30
2018-04-25T15:08:52.001Z,5.50
2018-04-25T15:11:19.524Z,6.17
2018-04-25T15:13:47.166Z,4.50
2018-04-25T15:16:14.666Z,5.17
2018-04-25T15:18:43.057Z,5.93
2018-04-25T15:21:10.650Z,10.20
2018-04-25T15:23:38.906Z,6.57
2018-04-25T15:26:06.911Z,5.50
2018-04-25T15:28:34.450Z,5.20
2018-04-25T15:31:02.968Z,7.30
2018-04-25T15:33:30.730Z,5.20
2018-04-25T15:35:59.008Z,9.13
2018-04-25T15:38:26.969Z,5.97
2018-04-25T15:40:54.798Z,4.82
2018-04-25T15:43:23.103Z,4.60
2018-04-25T15:45:51.574Z,5.75
2018-04-25T15:48:19.881Z,5.20
2018-04-25T15:50:47.361Z,3.55
2018-04-25T15:53:14.846Z,3.72
2018-04-25T15:55:42.630Z,4.20
2018-04-25T15:58:10.503Z,4.85
2018-04-25T16:00:38.054Z,6.28
2018-04-25T16:03:06.690Z,3.58
2018-04-25T16:05:34.238Z,4.90
2018-04-25T16:08:01.782Z,4.05
2018-04-25T16:10:29.330Z,5.18
2018-04-25T16:12:56.814Z,6.60
2018-04-25T16:15:24.423Z,3.25
2018-04-25T16:17:51.976Z,6.12
2018-04-25T16:20:20.421Z,3.25
2018-04-25T16:22:48.724Z,4.15
2018-04-25T16:25:16.337Z,4.15
2018-04-25T16:27:44.638Z,4.80
2018-04-25T16:30:12.122Z,3.75
2018-04-25T16:32:39.965Z,3.67
2018-04-25T16:35:07.453Z,5.93
2018-04-25T16:37:34.945Z,4.50
2018-04-25T16:40:02.707Z,6.68
2018-04-25T16:42:30.223Z,7.72
2018-04-25T16:44:57.709Z,4.30
2018-04-25T16:47:25.995Z,5.53
2018-04-25T16:49:53.533Z,5.57
2018-04-25T16:52:21.042Z,2.95
2018-04-25T16:54:49.800Z,7.37
2018-04-25T16:57:17.302Z,4.57
2018-04-25T16:59:44.794Z,3.97
2018-04-25T17:02:12.689Z,7.68
2018-04-25T17:04:40.274Z,7.72
2018-04-25T17:07:07.926Z,10.73
2018-04-25T17:09:35.722Z,6.03
2018-04-25T17:12:03.159Z,8.30
2018-04-25T17:14:30.785Z,6.68
2018-04-25T17:16:59.522Z,7.50
2018-04-25T17:19:27.274Z,9.60
2018-04-25T17:21:54.825Z,10.98
2018-04-25T17:24:22.355Z,9.80
2018-04-25T17:26:50.666Z,8.68
2018-04-25T17:29:18.218Z,9.85
2018-04-25T17:31:46.039Z,10.20
2018-04-25T17:34:13.778Z,9.77
2018-04-25T17:36:41.288Z,7.82
2018-04-25T17:39:09.037Z,10.52
2018-04-25T17:41:36.592Z,8.80
2018-04-25T17:44:04.162Z,9.00
2018-04-25T17:46:31.674Z,12.57
2018-04-25T17:48:59.183Z,12.30
2018-04-25T17:51:26.683Z,10.77
2018-04-25T17:53:54.489Z,8.13
2018-04-25T17:56:23.259Z,10.75
2018-04-25T17:58:50.982Z,9.52
2018-04-25T18:01:18.552Z,8.65
2018-04-25T18:03:46.852Z,11.18
2018-04-25T18:06:14.375Z,12.50
2018-04-25T18:08:41.987Z,12.07
2018-04-25T18:11:10.533Z,9.32
2018-04-25T18:13:38.027Z,10.45
2018-04-25T18:16:06.043Z,9.18
2018-04-25T18:18:33.699Z,6.97
2018-04-25T18:21:01.235Z,12.15
2018-04-25T18:23:29.182Z,11.25
2018-04-25T18:25:56.807Z,16.05
2018-04-25T18:28:25.190Z,7.05
2018-04-25T18:30:52.860Z,9.70
2018-04-25T18:33:20.421Z,11.85
2018-04-25T18:35:47.875Z,12.40
2018-04-25T18:38:15.382Z,18.12
2018-04-25T18:40:42.896Z,13.80
2018-04-25T18:43:11.187Z,13.40
2018-04-25T18:45:38.757Z,12.13
2018-04-25T18:48:07.016Z,13.30
2018-04-25T18:50:34.502Z,12.77
2018-04-25T18:53:02.299Z,10.40
2018-04-25T18:55:29.825Z,17.92
2018-04-25T18:57:57.321Z,16.60
2018-04-25T19:00:24.918Z,13.23
2018-04-25T19:02:52.394Z,10.95
2018-04-25T19:05:19.890Z,10.05
2018-04-25T19:07:47.421Z,13.70
2018-04-25T19:10:15.083Z,15.60
2018-04-25T19:12:42.567Z,17.20
2018-04-25T19:15:10.374Z,15.63
2018-04-25T19:17:38.653Z,14.77
2018-04-25T19:20:06.969Z,13.80
2018-04-25T19:22:34.482Z,11.80
2018-04-25T19:25:02.789Z,21.58
2018-04-25T19:27:30.270Z,13.20
2018-04-25T19:29:57.766Z,8.38
2018-04-25T19:32:25.283Z,13.77
2018-04-25T19:34:52.772Z,14.25
2018-04-25T19:37:20.275Z,13.00
2018-04-25T19:39:47.834Z,14.15
2018-04-25T19:42:15.331Z,25.12
2018-04-25T19:44:42.887Z,12.73
2018-04-25T19:47:11.096Z,23.98
2018-04-25T19:49:39.353Z,15.90
2018-04-25T19:52:07.040Z,15.10
2018-04-25T19:54:35.675Z,18.00
2018-04-25T19:57:03.595Z,15.57
2018-04-25T19:59:31.618Z,15.05
2018-04-25T20:01:59.278Z,19.30
2018-04-25T20:07:01.004Z,13.57
2018-04-25T20:09:29.447Z,14.45
2018-04-25T20:11:58.789Z,14.43
2018-04-25T20:14:27.143Z,10.27
2018-04-25T20:16:54.626Z,13.15
2018-04-25T20:19:22.314Z,20.58
2018-04-25T20:21:49.822Z,13.13
2018-04-25T20:24:17.966Z,9.73
2018-04-25T20:26:45.450Z,9.23
2018-04-25T20:29:14.781Z,12.45
2018-04-25T20:31:42.288Z,9.95
2018-04-25T20:34:09.774Z,10.38
2018-04-25T20:36:37.791Z,16.37
2018-04-25T20:39:05.349Z,13.93
2018-04-25T20:41:32.862Z,18.73
2018-04-25T20:44:00.435Z,11.80
2018-04-25T20:46:28.009Z,15.13
2018-04-25T20:48:55.508Z,12.95
2018-04-25T20:51:23.013Z,17.70
2018-04-25T20:53:50.535Z,18.23
2018-04-25T20:56:18.100Z,21.40
2018-04-25T20:58:46.724Z,17.87
2018-04-25T21:01:14.226Z,21.05
2018-04-25T21:03:41.739Z,16.05
2018-04-25T21:06:09.254Z,18.00
2018-04-25T21:08:36.759Z,17.02
2018-04-25T21:11:04.259Z,25.30
2018-04-25T21:13:31.953Z,18.85
2018-04-25T21:16:00.294Z,18.10
2018-04-25T21:18:27.936Z,13.00
2018-04-25T21:20:55.511Z,9.15
2018-04-25T21:23:23.023Z,6.68
2018-04-25T21:25:50.536Z,4.93
2018-04-25T21:28:18.367Z,5.70
2018-04-25T21:30:47.503Z,8.02
2018-04-25T21:33:15.154Z,5.93
2018-04-25T21:35:42.648Z,3.42
2018-04-25T21:38:11.013Z,5.95
2018-04-25T21:40:39.263Z,7.28
2018-04-25T21:43:07.534Z,8.07
2018-04-25T21:45:35.039Z,10.95
2018-04-25T21:48:02.794Z,11.57
2018-04-25T21:50:31.725Z,11.75
2018-04-25T21:52:59.278Z,9.88
2018-04-25T21:55:26.820Z,13.25
2018-04-25T21:57:54.438Z,11.23
2018-04-25T22:00:22.795Z,13.62
2018-04-25T22:02:50.297Z,10.90
2018-04-25T22:05:18.562Z,12.82
2018-04-25T22:07:46.848Z,5.82
2018-04-25T22:10:15.099Z,10.55
2018-04-25T22:12:43.382Z,7.47
2018-04-25T22:15:11.715Z,7.90
2018-04-25T22:17:39.286Z,7.07
2018-04-25T22:20:06.835Z,3.53
2018-04-25T22:22:34.366Z,5.53
2018-04-25T22:25:02.212Z,7.00
2018-04-25T22:27:30.787Z,7.18
2018-04-25T22:29:59.027Z,5.57
2018-04-25T22:32:26.486Z,9.55
2018-04-25T22:34:54.842Z,6.68
2018-04-25T22:37:22.337Z,10.05
2018-04-25T22:39:49.805Z,9.68
2018-04-25T22:42:17.335Z,16.17
2018-04-25T22:44:44.816Z,16.30
2018-04-25T22:47:12.389Z,22.92
2018-04-25T22:49:40.303Z,19.12
2018-04-25T22:52:07.713Z,16.15
2018-04-25T22:54:35.226Z,12.32
2018-04-25T22:57:03.088Z,14.60
2018-04-25T22:59:30.608Z,17.98
2018-04-25T23:01:58.847Z,9.95
2018-04-25T23:04:26.629Z,15.85
2018-04-25T23:06:54.094Z,10.80
2018-04-25T23:09:22.342Z,11.95
2018-04-25T23:11:50.150Z,10.75
2018-04-25T23:14:17.679Z,11.75
2018-04-25T23:16:45.922Z,8.95
2018-04-25T23:19:13.781Z,18.42
2018-04-25T23:21:42.270Z,11.75
2018-04-25T23:24:09.769Z,10.88
2018-04-25T23:26:38.299Z,12.82
2018-04-25T23:29:05.778Z,9.77
2018-04-25T23:31:33.290Z,5.85
2018-04-25T23:34:00.991Z,10.00
2018-04-25T23:36:28.458Z,5.75
2018-04-25T23:38:55.911Z,4.15
2018-04-25T23:41:23.511Z,5.75
2018-04-25T23:43:50.961Z,5.87
2018-04-25T23:46:18.437Z,3.37
2018-04-25T23:48:45.926Z,7.60
2018-04-25T23:51:13.412Z,4.45
2018-04-25T23:53:40.882Z,9.23
2018-04-25T23:56:08.631Z,7.93
2018-04-25T23:58:36.092Z,9.30
